Lynden, WA (98264)

10:22 AM PDT on October 31, 2014 (GMT -0700)
Northwest Washington Fairgrounds | Change Station
CLOSE
Current Station
Personal Weather Station
Location: Lynden, WA
Elevation: 105 ft
Nearby Weather Stations

Elev 105 ft 48.94 °N, 122.47 °W | Updated 13 seconds ago

Rain
Rain
50.9 °F
Feels Like 50.9 °F
N
0.2
Wind Variable Wind from WSW
Gusts 2.5 mph

Today
High -- | Low -- °F
--% Chance of Precip.
Yesterday
High -- | Low -- °F
Precip. -- in
7:55 AM 5:50 PM
First Quarter, 57% visible
Pressure 29.75 in
Visibility 3.0 miles
Clouds Scattered Clouds 300 ft
Mostly Cloudy 4400 ft
Overcast 5000 ft
Dew Point 51 °F
Humidity 99%
Rainfall 0.40 in
Snow Depth Not available.
UV 0 out of 12
Pollen .30 out of 12
Air Quality Not available.
Flu Activity Not available.
SPECI KBLI 311700Z 00000KT 3SM -RA BR SCT003 BKN044 OVC050 11/09 A2975 RMK AO2 P0001

More Conditions Fewer Conditions

Pressure 29.75 in
Visibility 3.0 miles
Clouds Scattered Clouds 300 ft
Mostly Cloudy 4400 ft
Overcast 5000 ft
Dew Point 51 °F
Humidity 99%
Rainfall 0.40 in
Snow Depth Not available.
UV 0 out of 12
Pollen .30 out of 12
Air Quality Not available.
Flu Activity Not available.
SPECI KBLI 311700Z 00000KT 3SM -RA BR SCT003 BKN044 OVC050 11/09 A2975 RMK AO2 P0001

More Conditions Fewer Conditions

10-Day Weather Forecast

Almanac

Astronomy

Oct. 31, 2014 Rise Set
Actual Time
Civil Twilight
Nautical Twilight
Astronomical Twilight
Moon
Length of Visible Light
Length of Day
Tomorrow will be .
, % of the Moon is Illuminated

Today's Extremes

State Highs State Lows

Community

WunderPhotos

Upload Photos

1,766,669 photos uploaded!

WunderBlogs® & News

Nearby

Air Quality

  Air Quality AQ Index Pollutant
Not available.

Snow Depth

Station Depth Elevation

Earthquake Activity

City Distance Mag. Time & Date
Minimum magnitude displayed is 2.5.

Coastal Water Temperatures

Place Temperature

Nearby Weather Stations